Kezdőlap
METAR-TAF:

METAR-TAF

Repülőterek :

Kristianstad, Svédország

földrajzi szélesség: 55-55N, földrajzi hosszúság: 014-05E, magasság: 23 m

Jelenlegi meteorológiai megfigyelések

A jelentés 40 perccel ezelõtt készült, 04:50 UTC
Keleti szél 7 kt
Hőmérséklet 13°C
Páratartalom 100%
Légköri nyomás 1008 hPa
Látótávolság 10 km, vagy több

METAR: ESMK 150450Z AUTO 10007KT 9999 OVC064/// 13/13 Q1008

Idő: 07:30 (05:30 UTC)

Előrejelzés

A jelentés 18 órával és 12 perccel ezelõtt készült, 11:18 UTC
Az előrejelzés 14-én 12 óra UTC és 14-én 15 óra UTC között érvényes
Dél-délkeleti szél 8 kt
Látótávolság 10 km, vagy több
Kevés felhő 3000 lábon
14-én 12 óra UTC és 14-én 15 óra UTC között ideiglenes
Kevés felhő 3000 lábon, Tornyos gomolyfelhő.

TAF: ESMK 141118Z 1412/1415 15008KT 9999 FEW030 TEMPO 1412/1415 FEW030TCU

Meteorológiai megfigyelések és előrejelzések több, mint 4000 repülőtéren (METAR és TAF jelentéseket).

A térképen piros és sárga pontok jelzik az elérhető meteorológiai állomásokat.

Mozgassa az egeret a pont fölött, hogy megjelenjen az állomás neve.

Azután kattintson az időjárási megfigyelések és előrejelzések megtekintéséhez.

A térkép megváltoztatása: kattintson a fekete keresztel jelölt zöld gombra ráközelítéshez, a vonallal jelölt zöld gombra távolításhoz, vagy a zöld nyilakra a szomszédos térképek eléréséhez.


METAR-TAF: